F/V Liberty-s — FHKM — position and weather

sailwx.info

Track history (hours):
 
Tides and Currents Weather Stations Pressure Air Temp Water Temp Dewpoint Dewpoint Depression Visibility Wind Speed Wind Dir Waves Ship Positions

F/V Liberty-s

Last reported at 2018-Jan-12 05:29 UTC. Time now 2018-Jan-20 15:22 UTC.
Position N 47°12' W 004°01'.
Warning: this ship's position is 8 days out of date.

Type: Fishing. MMSI: 228387000.

Date/timePositionNaut miles runAvg speedWind from/ knotsBaromVisibWave heightAir tempDewpointWater temp
2018-Jan-12 05:29N 47°12' W 004°01'5 7.6
2018-Jan-12 04:52N 47°17' W 003°59'6 7.9
2018-Jan-12 04:08N 47°23' W 003°58'1 8.0
2018-Jan-12 03:57N 47°24' W 003°58'4 7.9
2018-Jan-12 03:28N 47°28' W 003°57'4 8.0
2018-Jan-12 02:58N 47°32' W 003°55'16 7.9
2018-Jan-12 00:58N 47°48' W 003°56'4 1.7
2018-Jan-11 22:29N 47°52' W 003°55'4 7.6
2018-Jan-11 22:00N 47°48' W 003°56'4 7.9
2018-Jan-11 21:28N 47°44' W 003°55'4 7.9
2018-Jan-11 21:00N 47°40' W 003°54'4 7.5
2018-Jan-11 20:28N 47°36' W 003°54'4 7.7
2018-Jan-11 20:00N 47°33' W 003°55'4 0.1
2018-Jan-10 02:58N 47°36' W 003°57'15 7.4
2018-Jan-10 00:58N 47°51' W 003°56'0 0.2
2018-Jan-09 23:33N 47°51' W 003°56'0 7.6
2018-Jan-09 23:30N 47°51' W 003°57'5 7.6
2018-Jan-09 22:55N 47°47' W 004°00'14 7.3
2018-Jan-09 21:02N 47°34' W 004°09'1 7.6
2018-Jan-09 20:58N 47°34' W 004°09'4 0.1
2018-Jan-08 10:06N 47°30' W 004°07'15 7.2
2018-Jan-08 07:58N 47°43' W 003°55'3 0.1
2018-Jan-06 17:41N 47°47' W 003°55'6 7.0
2018-Jan-06 16:49N 47°41' W 003°54'3 7.1
2018-Jan-06 16:24N 47°38' W 003°54'3 7.2
2018-Jan-06 15:58N 47°35' W 003°55'3 7.1
2018-Jan-06 15:30N 47°32' W 003°57'4 7.2
2018-Jan-06 14:56N 47°28' W 003°59'3 0.1
2018-Jan-05 02:37N 47°31' W 004°01'3 6.7
2018-Jan-05 02:13N 47°33' W 003°59'2 6.7
2018-Jan-05 01:59N 47°35' W 003°58'4 6.7
2018-Jan-05 01:25N 47°38' W 003°55'3 6.5
2018-Jan-05 00:54N 47°41' W 003°54'8 7.6
2018-Jan-04 23:53N 47°49' W 003°56'  
Track history (hours):
 
Tides and Currents Weather Stations Pressure Air Temp Water Temp Dewpoint Dewpoint Depression Visibility Wind Speed Wind Dir Waves Ship Positions

F/V Liberty-s

Last reported at 2018-Jan-12 05:29 UTC. Time now 2018-Jan-20 15:22 UTC.
Position N 47°12' W 004°01'.
Warning: this ship's position is 8 days out of date.

Type: Fishing. MMSI: 228387000.

Date/timePositionNaut miles runAvg speedWind from/ knotsBaromVisibWave heightAir tempDewpointWater temp
2018-Jan-12 05:29N 47°12' W 004°01'5 7.6
2018-Jan-12 04:52N 47°17' W 003°59'6 7.9
2018-Jan-12 04:08N 47°23' W 003°58'1 8.0
2018-Jan-12 03:57N 47°24' W 003°58'4 7.9
2018-Jan-12 03:28N 47°28' W 003°57'4 8.0
2018-Jan-12 02:58N 47°32' W 003°55'16 7.9
2018-Jan-12 00:58N 47°48' W 003°56'4 1.7
2018-Jan-11 22:29N 47°52' W 003°55'4 7.6
2018-Jan-11 22:00N 47°48' W 003°56'4 7.9
2018-Jan-11 21:28N 47°44' W 003°55'4 7.9
2018-Jan-11 21:00N 47°40' W 003°54'4 7.5
2018-Jan-11 20:28N 47°36' W 003°54'4 7.7
2018-Jan-11 20:00N 47°33' W 003°55'4 0.1
2018-Jan-10 02:58N 47°36' W 003°57'15 7.4
2018-Jan-10 00:58N 47°51' W 003°56'0 0.2
2018-Jan-09 23:33N 47°51' W 003°56'0 7.6
2018-Jan-09 23:30N 47°51' W 003°57'5 7.6
2018-Jan-09 22:55N 47°47' W 004°00'14 7.3
2018-Jan-09 21:02N 47°34' W 004°09'1 7.6
2018-Jan-09 20:58N 47°34' W 004°09'4 0.1
2018-Jan-08 10:06N 47°30' W 004°07'15 7.2
2018-Jan-08 07:58N 47°43' W 003°55'3 0.1
2018-Jan-06 17:41N 47°47' W 003°55'6 7.0
2018-Jan-06 16:49N 47°41' W 003°54'3 7.1
2018-Jan-06 16:24N 47°38' W 003°54'3 7.2
2018-Jan-06 15:58N 47°35' W 003°55'3 7.1
2018-Jan-06 15:30N 47°32' W 003°57'4 7.2
2018-Jan-06 14:56N 47°28' W 003°59'3 0.1
2018-Jan-05 02:37N 47°31' W 004°01'3 6.7
2018-Jan-05 02:13N 47°33' W 003°59'2 6.7
2018-Jan-05 01:59N 47°35' W 003°58'4 6.7
2018-Jan-05 01:25N 47°38' W 003°55'3 6.5
2018-Jan-05 00:54N 47°41' W 003°54'8 7.6
2018-Jan-04 23:53N 47°49' W 003°56'  

Dump ship's entire track history